sensor_id;sensor_type;location;lat;lon;timestamp;pressure;altitude;pressure_sealevel;temperature;humidity
6528;BME280;64597;42.664;23.256;2023-01-01T00:01:28;95918.72;;;5.05;67.27
6528;BME280;64597;42.664;23.256;2023-01-01T00:03:55;95982.63;;;5.49;66.42
6528;BME280;64597;42.664;23.256;2023-01-01T00:06:22;95986.06;;;5.49;67.09
6528;BME280;64597;42.664;23.256;2023-01-01T00:08:48;95989.66;;;5.48;66.50
6528;BME280;64597;42.664;23.256;2023-01-01T00:11:13;95998.31;;;5.49;66.36
6528;BME280;64597;42.664;23.256;2023-01-01T00:13:40;95995.88;;;5.47;66.33
6528;BME280;64597;42.664;23.256;2023-01-01T00:16:13;95999.47;;;5.46;66.76
6528;BME280;64597;42.664;23.256;2023-01-01T00:18:39;95968.59;;;5.34;66.29
6528;BME280;64597;42.664;23.256;2023-01-01T00:21:14;95990.16;;;5.44;66.73
6528;BME280;64597;42.664;23.256;2023-01-01T00:23:40;95994.28;;;5.30;66.26
6528;BME280;64597;42.664;23.256;2023-01-01T00:26:10;96002.94;;;5.39;66.60
6528;BME280;64597;42.664;23.256;2023-01-01T00:28:36;96009.13;;;5.38;66.93
6528;BME280;64597;42.664;23.256;2023-01-01T00:31:09;96010.59;;;5.40;65.96
6528;BME280;64597;42.664;23.256;2023-01-01T00:33:34;96015.50;;;5.43;66.60
6528;BME280;64597;42.664;23.256;2023-01-01T00:36:07;96013.22;;;5.40;66.31
6528;BME280;64597;42.664;23.256;2023-01-01T00:38:33;96016.81;;;5.39;66.54
6528;BME280;64597;42.664;23.256;2023-01-01T00:40:58;96014.22;;;5.39;66.55
6528;BME280;64597;42.664;23.256;2023-01-01T00:43:24;96001.97;;;5.24;65.98
6528;BME280;64597;42.664;23.256;2023-01-01T00:45:49;96000.50;;;5.05;67.06
6528;BME280;64597;42.664;23.256;2023-01-01T00:48:18;96012.59;;;5.14;66.86
6528;BME280;64597;42.664;23.256;2023-01-01T00:50:44;96017.81;;;5.22;71.37
6528;BME280;64597;42.664;23.256;2023-01-01T00:53:09;96014.38;;;5.22;67.78
6528;BME280;64597;42.664;23.256;2023-01-01T00:55:35;96025.03;;;5.04;68.58
6528;BME280;64597;42.664;23.256;2023-01-01T00:58:00;96011.63;;;4.99;67.56
6528;BME280;64597;42.664;23.256;2023-01-01T01:00:26;96023.91;;;5.07;67.56
6528;BME280;64597;42.664;23.256;2023-01-01T01:02:51;96016.72;;;5.09;68.13
6528;BME280;64597;42.664;23.256;2023-01-01T01:05:18;96015.88;;;5.08;67.86
6528;BME280;64597;42.664;23.256;2023-01-01T01:07:43;96008.72;;;4.94;67.62
6528;BME280;64597;42.664;23.256;2023-01-01T01:10:09;95996.31;;;4.88;67.73
6528;BME280;64597;42.664;23.256;2023-01-01T01:12:36;96010.97;;;4.97;67.57
6528;BME280;64597;42.664;23.256;2023-01-01T01:15:03;96006.59;;;4.89;68.06
6528;BME280;64597;42.664;23.256;2023-01-01T01:17:28;96010.66;;;4.92;67.75
6528;BME280;64597;42.664;23.256;2023-01-01T01:19:54;96004.78;;;4.82;67.17
6528;BME280;64597;42.664;23.256;2023-01-01T01:22:19;95994.34;;;4.66;67.93
6528;BME280;64597;42.664;23.256;2023-01-01T01:24:45;96012.78;;;4.64;68.60
6528;BME280;64597;42.664;23.256;2023-01-01T01:27:10;96005.44;;;4.60;68.48
6528;BME280;64597;42.664;23.256;2023-01-01T01:29:36;95994.50;;;4.64;68.36
6528;BME280;64597;42.664;23.256;2023-01-01T01:32:01;95984.56;;;4.52;68.75
6528;BME280;64597;42.664;23.256;2023-01-01T01:34:27;96000.38;;;4.58;69.36
6528;BME280;64597;42.664;23.256;2023-01-01T01:36:52;95997.91;;;4.65;69.28
6528;BME280;64597;42.664;23.256;2023-01-01T01:39:18;96007.72;;;4.55;68.51
6528;BME280;64597;42.664;23.256;2023-01-01T01:41:44;96004.75;;;4.50;69.08
6528;BME280;64597;42.664;23.256;2023-01-01T01:47:34;96003.13;;;4.49;69.66
6528;BME280;64597;42.664;23.256;2023-01-01T01:53:13;95998.56;;;4.51;69.91
6528;BME280;64597;42.664;23.256;2023-01-01T01:55:46;95997.09;;;4.56;69.68
6528;BME280;64597;42.664;23.256;2023-01-01T01:58:13;95995.31;;;4.57;68.36
6528;BME280;64597;42.664;23.256;2023-01-01T02:00:40;95966.56;;;4.33;68.92
6528;BME280;64597;42.664;23.256;2023-01-01T02:03:19;96015.53;;;4.39;68.58
6528;BME280;64597;42.664;23.256;2023-01-01T02:05:46;96015.53;;;4.39;69.08
6528;BME280;64597;42.664;23.256;2023-01-01T02:08:14;96015.97;;;4.26;69.74
6528;BME280;64597;42.664;23.256;2023-01-01T02:10:40;96022.50;;;4.22;69.77
6528;BME280;64597;42.664;23.256;2023-01-01T02:13:05;96019.25;;;4.36;69.32
6528;BME280;64597;42.664;23.256;2023-01-01T02:15:43;96003.94;;;4.33;69.44
6528;BME280;64597;42.664;23.256;2023-01-01T02:18:13;96029.41;;;4.47;69.18
6528;BME280;64597;42.664;23.256;2023-01-01T02:21:22;96026.47;;;4.50;69.53
6528;BME280;64597;42.664;23.256;2023-01-01T02:26:58;96019.63;;;4.41;68.74
6528;BME280;64597;42.664;23.256;2023-01-01T02:32:07;96002.72;;;4.11;69.47
6528;BME280;64597;42.664;23.256;2023-01-01T02:34:45;96012.88;;;4.23;68.72
6528;BME280;64597;42.664;23.256;2023-01-01T02:37:14;96018.75;;;4.25;69.15
6528;BME280;64597;42.664;23.256;2023-01-01T02:39:46;96012.56;;;4.26;69.14
6528;BME280;64597;42.664;23.256;2023-01-01T02:42:13;96011.13;;;4.31;68.55
6528;BME280;64597;42.664;23.256;2023-01-01T02:44:42;96003.09;;;4.25;68.97
6528;BME280;64597;42.664;23.256;2023-01-01T02:47:12;96019.44;;;4.35;68.89
6528;BME280;64597;42.664;23.256;2023-01-01T02:49:45;96011.25;;;4.30;68.70
6528;BME280;64597;42.664;23.256;2023-01-01T02:58:06;96002.75;;;4.19;68.65
6528;BME280;64597;42.664;23.256;2023-01-01T03:00:56;96012.72;;;4.24;68.67
6528;BME280;64597;42.664;23.256;2023-01-01T03:03:38;95990.78;;;4.01;69.27
6528;BME280;64597;42.664;23.256;2023-01-01T03:06:41;96008.94;;;4.10;69.52
6528;BME280;64597;42.664;23.256;2023-01-01T03:09:35;95994.59;;;4.14;68.91
6528;BME280;64597;42.664;23.256;2023-01-01T03:12:13;95995.53;;;4.05;69.35
6528;BME280;64597;42.664;23.256;2023-01-01T03:14:44;95999.59;;;3.92;69.97
6528;BME280;64597;42.664;23.256;2023-01-01T03:19:51;96002.16;;;3.84;69.94
6528;BME280;64597;42.664;23.256;2023-01-01T03:22:19;96007.25;;;3.93;69.88
6528;BME280;64597;42.664;23.256;2023-01-01T03:24:59;96015.44;;;3.98;69.60
6528;BME280;64597;42.664;23.256;2023-01-01T03:27:31;96024.22;;;3.97;70.36
6528;BME280;64597;42.664;23.256;2023-01-01T03:30:00;96023.25;;;3.98;69.60
6528;BME280;64597;42.664;23.256;2023-01-01T03:32:52;96020.13;;;3.95;69.66
6528;BME280;64597;42.664;23.256;2023-01-01T03:35:27;96018.66;;;3.92;70.35
6528;BME280;64597;42.664;23.256;2023-01-01T03:37:57;96012.16;;;3.96;69.67
6528;BME280;64597;42.664;23.256;2023-01-01T03:40:25;96001.22;;;3.93;69.65
6528;BME280;64597;42.664;23.256;2023-01-01T03:42:58;96012.50;;;4.01;69.61
6528;BME280;64597;42.664;23.256;2023-01-01T03:45:30;96013.47;;;4.00;69.33
6528;BME280;64597;42.664;23.256;2023-01-01T03:47:58;96013.75;;;3.89;68.86
6528;BME280;64597;42.664;23.256;2023-01-01T03:50:34;96005.94;;;3.89;68.97
6528;BME280;64597;42.664;23.256;2023-01-01T03:53:08;96007.22;;;3.85;69.26
6528;BME280;64597;42.664;23.256;2023-01-01T03:55:41;96010.28;;;3.81;69.65
6528;BME280;64597;42.664;23.256;2023-01-01T04:03:28;96013.03;;;3.71;69.96
6528;BME280;64597;42.664;23.256;2023-01-01T04:05:55;95996.69;;;3.61;70.24
6528;BME280;64597;42.664;23.256;2023-01-01T04:08:21;96017.91;;;3.74;70.05
6528;BME280;64597;42.664;23.256;2023-01-01T04:10:58;95996.50;;;3.55;70.12
6528;BME280;64597;42.664;23.256;2023-01-01T04:13:24;96015.91;;;3.60;70.27
6528;BME280;64597;42.664;23.256;2023-01-01T04:15:50;96000.84;;;3.46;70.68
6528;BME280;64597;42.664;23.256;2023-01-01T04:18:15;96014.28;;;3.59;70.78
6528;BME280;64597;42.664;23.256;2023-01-01T04:20:41;96019.03;;;3.64;70.30
6528;BME280;64597;42.664;23.256;2023-01-01T04:23:06;96006.09;;;3.54;70.21
6528;BME280;64597;42.664;23.256;2023-01-01T04:25:32;95996.19;;;3.58;70.43
6528;BME280;64597;42.664;23.256;2023-01-01T04:27:57;96005.81;;;3.57;70.43
6528;BME280;64597;42.664;23.256;2023-01-01T04:30:23;96023.47;;;3.71;70.21
6528;BME280;64597;42.664;23.256;2023-01-01T04:32:49;96016.59;;;3.70;69.52
6528;BME280;64597;42.664;23.256;2023-01-01T04:35:14;96022.47;;;3.72;69.78
6528;BME280;64597;42.664;23.256;2023-01-01T04:37:42;96007.75;;;3.55;70.25
6528;BME280;64597;42.664;23.256;2023-01-01T04:40:08;96018.56;;;3.68;70.40
6528;BME280;64597;42.664;23.256;2023-01-01T04:42:34;96022.44;;;3.64;70.56
6528;BME280;64597;42.664;23.256;2023-01-01T04:45:00;96023.75;;;3.68;70.83
6528;BME280;64597;42.664;23.256;2023-01-01T04:47:25;96021.97;;;3.69;70.26
6528;BME280;64597;42.664;23.256;2023-01-01T04:49:53;96009.84;;;3.52;70.97
6528;BME280;64597;42.664;23.256;2023-01-01T04:52:19;96021.44;;;3.57;70.21
6528;BME280;64597;42.664;23.256;2023-01-01T04:54:45;96014.28;;;3.59;70.34
6528;BME280;64597;42.664;23.256;2023-01-01T04:57:10;96021.13;;;3.60;70.25
6528;BME280;64597;42.664;23.256;2023-01-01T04:59:35;96009.50;;;3.47;70.89
6528;BME280;64597;42.664;23.256;2023-01-01T05:02:01;96013.88;;;3.46;70.65
6528;BME280;64597;42.664;23.256;2023-01-01T05:04:27;96018.81;;;3.49;70.43
6528;BME280;64597;42.664;23.256;2023-01-01T05:06:52;96027.78;;;3.55;70.47
6528;BME280;64597;42.664;23.256;2023-01-01T05:09:18;96025.69;;;3.58;69.97
6528;BME280;64597;42.664;23.256;2023-01-01T05:11:43;96025.00;;;3.56;69.79
6528;BME280;64597;42.664;23.256;2023-01-01T05:14:08;96013.50;;;3.33;70.03
6528;BME280;64597;42.664;23.256;2023-01-01T05:16:35;96034.28;;;3.51;70.18
6528;BME280;64597;42.664;23.256;2023-01-01T05:19:03;96036.38;;;3.47;69.82
6528;BME280;64597;42.664;23.256;2023-01-01T05:21:33;96039.13;;;3.46;70.31
6528;BME280;64597;42.664;23.256;2023-01-01T05:24:01;96027.06;;;3.45;70.64
6528;BME280;64597;42.664;23.256;2023-01-01T05:26:29;96032.78;;;3.48;70.37
6528;BME280;64597;42.664;23.256;2023-01-01T05:28:57;96018.81;;;3.49;70.02
6528;BME280;64597;42.664;23.256;2023-01-01T05:31:24;96030.56;;;3.53;70.42
6528;BME280;64597;42.664;23.256;2023-01-01T05:33:50;96032.78;;;3.48;70.03
6528;BME280;64597;42.664;23.256;2023-01-01T05:36:21;96043.22;;;3.48;70.27
6528;BME280;64597;42.664;23.256;2023-01-01T05:38:48;96037.19;;;3.48;69.71
6528;BME280;64597;42.664;23.256;2023-01-01T05:41:14;96046.19;;;3.53;69.79
6528;BME280;64597;42.664;23.256;2023-01-01T05:43:41;96048.44;;;3.48;70.49
6528;BME280;64597;42.664;23.256;2023-01-01T05:46:15;96044.81;;;3.41;69.95
6528;BME280;64597;42.664;23.256;2023-01-01T05:48:42;96034.34;;;3.33;70.33
6528;BME280;64597;42.664;23.256;2023-01-01T05:51:19;96027.72;;;3.21;70.65
6528;BME280;64597;42.664;23.256;2023-01-01T05:53:45;96035.25;;;3.24;70.48
6528;BME280;64597;42.664;23.256;2023-01-01T05:56:13;96048.72;;;3.37;70.17
6528;BME280;64597;42.664;23.256;2023-01-01T05:58:39;96018.00;;;3.23;70.26
6528;BME280;64597;42.664;23.256;2023-01-01T06:01:10;96053.88;;;3.29;70.40
6528;BME280;64597;42.664;23.256;2023-01-01T06:03:37;96047.63;;;3.22;70.32
6528;BME280;64597;42.664;23.256;2023-01-01T06:06:08;96038.25;;;3.29;70.79
6528;BME280;64597;42.664;23.256;2023-01-01T06:08:34;96049.94;;;3.25;70.76
6528;BME280;64597;42.664;23.256;2023-01-01T06:11:01;96048.66;;;3.29;71.11
6528;BME280;64597;42.664;23.256;2023-01-01T06:13:27;96040.19;;;3.27;71.10
6528;BME280;64597;42.664;23.256;2023-01-01T06:15:57;96045.13;;;3.38;71.20
6528;BME280;64597;42.664;23.256;2023-01-01T06:18:23;96042.72;;;3.45;70.11
6528;BME280;64597;42.664;23.256;2023-01-01T06:20:49;96041.19;;;3.34;70.49
6528;BME280;64597;42.664;23.256;2023-01-01T06:23:15;96049.16;;;3.32;71.04
6528;BME280;64597;42.664;23.256;2023-01-01T06:25:41;96036.59;;;3.28;71.00
6528;BME280;64597;42.664;23.256;2023-01-01T06:28:06;96039.56;;;3.33;71.36
6528;BME280;64597;42.664;23.256;2023-01-01T06:30:31;96055.50;;;3.56;70.79
6528;BME280;64597;42.664;23.256;2023-01-01T06:32:59;96051.28;;;3.63;71.44
6528;BME280;64597;42.664;23.256;2023-01-01T06:35:24;96028.56;;;3.47;71.35
6528;BME280;64597;42.664;23.256;2023-01-01T06:37:49;96054.41;;;3.66;71.05
6528;BME280;64597;42.664;23.256;2023-01-01T06:40:15;96055.97;;;3.85;71.23
6528;BME280;64597;42.664;23.256;2023-01-01T06:42:40;96061.41;;;3.99;70.96
6528;BME280;64597;42.664;23.256;2023-01-01T06:45:06;96075.16;;;4.17;70.74
6528;BME280;64597;42.664;23.256;2023-01-01T06:47:33;96072.28;;;4.29;69.96
6528;BME280;64597;42.664;23.256;2023-01-01T06:50:00;96074.09;;;4.44;68.79
6528;BME280;64597;42.664;23.256;2023-01-01T06:52:25;96073.00;;;4.63;68.77
6528;BME280;64597;42.664;23.256;2023-01-01T06:54:51;96085.44;;;4.93;68.82
6528;BME280;64597;42.664;23.256;2023-01-01T06:57:16;96079.25;;;5.18;67.67
6528;BME280;64597;42.664;23.256;2023-01-01T06:59:42;96070.09;;;5.46;67.49
6528;BME280;64597;42.664;23.256;2023-01-01T07:02:10;96078.69;;;5.79;66.99
6528;BME280;64597;42.664;23.256;2023-01-01T07:04:42;96069.31;;;6.09;65.59
6528;BME280;64597;42.664;23.256;2023-01-01T07:07:07;96078.63;;;6.50;65.32
6528;BME280;64597;42.664;23.256;2023-01-01T07:09:33;96074.22;;;6.73;63.58
6528;BME280;64597;42.664;23.256;2023-01-01T07:11:58;96058.38;;;6.89;63.34
6528;BME280;64597;42.664;23.256;2023-01-01T07:14:24;96076.31;;;7.23;62.78
6528;BME280;64597;42.664;23.256;2023-01-01T07:16:51;96073.94;;;7.50;61.40
6528;BME280;64597;42.664;23.256;2023-01-01T07:19:16;96059.56;;;7.61;61.32
6528;BME280;64597;42.664;23.256;2023-01-01T07:21:45;96068.19;;;7.99;59.56
6528;BME280;64597;42.664;23.256;2023-01-01T07:24:13;96042.81;;;8.06;59.92
6528;BME280;64597;42.664;23.256;2023-01-01T07:26:40;96063.84;;;8.50;58.84
6528;BME280;64597;42.664;23.256;2023-01-01T07:29:06;96059.50;;;8.78;58.30
6528;BME280;64597;42.664;23.256;2023-01-01T07:31:36;96048.38;;;8.97;57.92
6528;BME280;64597;42.664;23.256;2023-01-01T07:34:03;96034.94;;;9.34;57.11
6528;BME280;64597;42.664;23.256;2023-01-01T07:36:28;96049.97;;;9.68;55.78
6528;BME280;64597;42.664;23.256;2023-01-01T07:38:54;96053.97;;;9.91;55.41
6528;BME280;64597;42.664;23.256;2023-01-01T07:41:19;96058.38;;;10.12;55.71
6528;BME280;64597;42.664;23.256;2023-01-01T07:43:45;96041.00;;;10.24;54.67
6528;BME280;64597;42.664;23.256;2023-01-01T07:46:14;96047.81;;;10.53;54.75
6528;BME280;64597;42.664;23.256;2023-01-01T07:48:43;96048.28;;;10.69;54.61
6528;BME280;64597;42.664;23.256;2023-01-01T07:51:09;96051.78;;;10.90;53.08
6528;BME280;64597;42.664;23.256;2023-01-01T07:53:34;96047.78;;;11.13;52.54
6528;BME280;64597;42.664;23.256;2023-01-01T07:56:00;96050.66;;;11.44;51.86
6528;BME280;64597;42.664;23.256;2023-01-01T07:58:25;96053.31;;;11.77;50.61
6528;BME280;64597;42.664;23.256;2023-01-01T08:00:51;96049.22;;;11.88;50.02
6528;BME280;64597;42.664;23.256;2023-01-01T08:03:16;96033.78;;;11.91;49.84
6528;BME280;64597;42.664;23.256;2023-01-01T08:05:42;96053.22;;;12.23;49.82
6528;BME280;64597;42.664;23.256;2023-01-01T08:08:08;96060.47;;;12.47;48.75
6528;BME280;64597;42.664;23.256;2023-01-01T08:10:34;96064.41;;;12.76;48.41
6528;BME280;64597;42.664;23.256;2023-01-01T08:13:04;96046.09;;;12.81;47.68
6528;BME280;64597;42.664;23.256;2023-01-01T08:15:31;96061.38;;;13.16;47.38
6528;BME280;64597;42.664;23.256;2023-01-01T08:17:57;96058.28;;;13.26;46.40
6528;BME280;64597;42.664;23.256;2023-01-01T08:20:24;96058.31;;;13.51;46.08
6528;BME280;64597;42.664;23.256;2023-01-01T08:22:50;96060.56;;;13.72;45.52
6528;BME280;64597;42.664;23.256;2023-01-01T08:25:15;96046.78;;;13.88;45.54
6528;BME280;64597;42.664;23.256;2023-01-01T08:27:41;96059.72;;;14.21;44.90
6528;BME280;64597;42.664;23.256;2023-01-01T08:30:07;96046.56;;;14.32;44.37
6528;BME280;64597;42.664;23.256;2023-01-01T08:32:34;96051.34;;;14.60;43.42
6528;BME280;64597;42.664;23.256;2023-01-01T08:34:59;96056.06;;;14.58;43.70
6528;BME280;64597;42.664;23.256;2023-01-01T08:37:25;96051.50;;;14.65;43.72
6528;BME280;64597;42.664;23.256;2023-01-01T08:39:51;96057.53;;;14.72;43.53
6528;BME280;64597;42.664;23.256;2023-01-01T08:42:17;96027.91;;;14.57;42.99
6528;BME280;64597;42.664;23.256;2023-01-01T08:44:42;96054.56;;;14.62;42.86
6528;BME280;64597;42.664;23.256;2023-01-01T08:47:19;96055.63;;;14.61;43.20
6528;BME280;64597;42.664;23.256;2023-01-01T08:49:45;96054.28;;;14.70;43.22
6528;BME280;64597;42.664;23.256;2023-01-01T08:52:10;96053.69;;;14.86;43.03
6528;BME280;64597;42.664;23.256;2023-01-01T08:54:35;96029.78;;;14.68;42.76
6528;BME280;64597;42.664;23.256;2023-01-01T08:57:01;96036.13;;;14.85;42.80
6528;BME280;64597;42.664;23.256;2023-01-01T08:59:26;96047.28;;;15.05;42.12
6528;BME280;64597;42.664;23.256;2023-01-01T09:01:52;96049.34;;;15.03;42.18
6528;BME280;64597;42.664;23.256;2023-01-01T09:04:17;96034.31;;;14.97;41.90
6528;BME280;64597;42.664;23.256;2023-01-01T09:06:42;96044.22;;;15.20;42.00
6528;BME280;64597;42.664;23.256;2023-01-01T09:09:08;96035.56;;;15.24;41.46
6528;BME280;64597;42.664;23.256;2023-01-01T09:11:33;96041.72;;;15.36;41.15
6528;BME280;64597;42.664;23.256;2023-01-01T09:13:59;96039.34;;;15.46;41.25
6528;BME280;64597;42.664;23.256;2023-01-01T09:16:25;96030.38;;;15.71;41.02
6528;BME280;64597;42.664;23.256;2023-01-01T09:18:50;96020.22;;;15.79;40.95
6528;BME280;64597;42.664;23.256;2023-01-01T09:21:15;96019.28;;;15.85;40.49
6528;BME280;64597;42.664;23.256;2023-01-01T09:23:41;96015.59;;;15.98;40.43
6528;BME280;64597;42.664;23.256;2023-01-01T09:26:08;96007.72;;;16.14;40.05
6528;BME280;64597;42.664;23.256;2023-01-01T09:28:35;95992.00;;;16.13;39.91
6528;BME280;64597;42.664;23.256;2023-01-01T09:31:01;96002.97;;;16.05;39.62
6528;BME280;64597;42.664;23.256;2023-01-01T09:33:27;95995.09;;;16.10;39.65
6528;BME280;64597;42.664;23.256;2023-01-01T09:35:53;96006.31;;;16.12;39.70
6528;BME280;64597;42.664;23.256;2023-01-01T09:38:18;96003.91;;;16.10;39.87
6528;BME280;64597;42.664;23.256;2023-01-01T09:40:56;96002.75;;;16.06;39.71
6528;BME280;64597;42.664;23.256;2023-01-01T09:43:46;96007.59;;;17.28;69.42
6528;BME280;64597;42.664;23.256;2023-01-01T09:46:14;95989.59;;;19.10;57.63
6528;BME280;64597;42.664;23.256;2023-01-01T09:48:47;95973.59;;;20.10;49.97
6528;BME280;64597;42.664;23.256;2023-01-01T09:51:18;95982.03;;;20.96;48.30
6528;BME280;64597;42.664;23.256;2023-01-01T09:53:58;95974.63;;;21.78;44.59
6528;BME280;64597;42.664;23.256;2023-01-01T09:56:27;95961.16;;;22.24;39.80
6528;BME280;64597;42.664;23.256;2023-01-01T09:58:54;95961.75;;;21.55;33.30
6528;BME280;64597;42.664;23.256;2023-01-01T10:04:44;95958.94;;;19.81;34.20
6528;BME280;64597;42.664;23.256;2023-01-01T10:07:40;95973.75;;;19.57;34.53
6528;BME280;64597;42.664;23.256;2023-01-01T10:15:41;95971.31;;;18.32;35.90
6528;BME280;64597;42.664;23.256;2023-01-01T10:18:17;95971.56;;;18.09;36.38
6528;BME280;64597;42.664;23.256;2023-01-01T10:21:00;95971.22;;;18.05;36.82
6528;BME280;64597;42.664;23.256;2023-01-01T10:23:33;95966.50;;;17.74;36.83
6528;BME280;64597;42.664;23.256;2023-01-01T10:26:05;95971.50;;;17.71;36.99
6528;BME280;64597;42.664;23.256;2023-01-01T10:28:42;95967.16;;;17.65;37.54
6528;BME280;64597;42.664;23.256;2023-01-01T10:31:19;95965.75;;;17.62;37.07
6528;BME280;64597;42.664;23.256;2023-01-01T10:33:45;95964.97;;;17.62;37.05
6528;BME280;64597;42.664;23.256;2023-01-01T10:36:14;95962.03;;;17.47;37.41
6528;BME280;64597;42.664;23.256;2023-01-01T10:38:41;95954.91;;;17.36;37.53
6528;BME280;64597;42.664;23.256;2023-01-01T10:41:09;95955.88;;;17.29;37.69
6528;BME280;64597;42.664;23.256;2023-01-01T10:43:36;95947.53;;;17.09;37.46
6528;BME280;64597;42.664;23.256;2023-01-01T10:46:02;95943.41;;;16.85;38.13
6528;BME280;64597;42.664;23.256;2023-01-01T10:48:29;95945.50;;;16.83;38.19
6528;BME280;64597;42.664;23.256;2023-01-01T10:51:00;95939.69;;;16.86;38.55
6528;BME280;64597;42.664;23.256;2023-01-01T10:53:50;95937.44;;;16.95;38.73
6528;BME280;64597;42.664;23.256;2023-01-01T10:56:23;95924.19;;;16.83;38.51
6528;BME280;64597;42.664;23.256;2023-01-01T10:58:56;95924.09;;;16.78;39.03
6528;BME280;64597;42.664;23.256;2023-01-01T11:01:31;95915.31;;;16.94;38.66
6528;BME280;64597;42.664;23.256;2023-01-01T11:06:39;95913.97;;;17.08;38.76
6528;BME280;64597;42.664;23.256;2023-01-01T11:09:24;95911.91;;;16.99;38.42
6528;BME280;64597;42.664;23.256;2023-01-01T11:11:59;95913.53;;;17.00;38.63
6528;BME280;64597;42.664;23.256;2023-01-01T11:14:27;95907.16;;;17.01;38.84
6528;BME280;64597;42.664;23.256;2023-01-01T11:16:55;95901.03;;;17.00;38.71
6528;BME280;64597;42.664;23.256;2023-01-01T11:19:28;95905.63;;;17.05;38.68
6528;BME280;64597;42.664;23.256;2023-01-01T11:21:56;95896.56;;;16.89;38.71
6528;BME280;64597;42.664;23.256;2023-01-01T11:24:24;95897.06;;;16.86;38.76
6528;BME280;64597;42.664;23.256;2023-01-01T11:26:51;95884.88;;;16.90;39.69
6528;BME280;64597;42.664;23.256;2023-01-01T11:29:26;95895.72;;;17.00;39.31
6528;BME280;64597;42.664;23.256;2023-01-01T11:31:52;95889.97;;;16.92;39.01
6528;BME280;64597;42.664;23.256;2023-01-01T11:34:28;95889.06;;;17.03;46.07
6528;BME280;64597;42.664;23.256;2023-01-01T11:39:33;95878.94;;;19.85;45.89
6528;BME280;64597;42.664;23.256;2023-01-01T11:42:02;95859.84;;;19.71;38.33
6528;BME280;64597;42.664;23.256;2023-01-01T11:44:41;95862.72;;;19.28;36.67
6528;BME280;64597;42.664;23.256;2023-01-01T11:52:28;95865.94;;;18.40;36.59
6528;BME280;64597;42.664;23.256;2023-01-01T11:55:01;95863.44;;;18.33;36.96
6528;BME280;64597;42.664;23.256;2023-01-01T11:57:27;95859.03;;;18.22;36.81
6528;BME280;64597;42.664;23.256;2023-01-01T11:59:59;95853.66;;;18.17;36.98
6528;BME280;64597;42.664;23.256;2023-01-01T12:02:37;95859.00;;;17.95;37.17
6528;BME280;64597;42.664;23.256;2023-01-01T12:05:23;95859.03;;;17.79;37.43
6528;BME280;64597;42.664;23.256;2023-01-01T12:07:50;95850.28;;;17.62;37.60
6528;BME280;64597;42.664;23.256;2023-01-01T12:11:02;95840.53;;;17.51;38.00
6528;BME280;64597;42.664;23.256;2023-01-01T12:13:17;95850.78;;;17.59;38.49
6528;BME280;64597;42.664;23.256;2023-01-01T12:18:23;95848.84;;;17.54;38.97
6528;BME280;64597;42.664;23.256;2023-01-01T12:21:13;95829.59;;;17.52;38.71
6528;BME280;64597;42.664;23.256;2023-01-01T12:23:41;95833.72;;;17.43;38.08
6528;BME280;64597;42.664;23.256;2023-01-01T12:28:53;95835.84;;;17.58;39.48
6528;BME280;64597;42.664;23.256;2023-01-01T12:39:40;95839.09;;;17.26;38.91
6528;BME280;64597;42.664;23.256;2023-01-01T12:47:53;95834.06;;;17.13;39.15
6528;BME280;64597;42.664;23.256;2023-01-01T12:53:41;95840.72;;;17.11;39.61
6528;BME280;64597;42.664;23.256;2023-01-01T12:56:14;95844.69;;;17.08;39.54
6528;BME280;64597;42.664;23.256;2023-01-01T12:59:10;95842.81;;;16.92;39.68
6528;BME280;64597;42.664;23.256;2023-01-01T13:01:38;95834.00;;;16.75;39.88
6528;BME280;64597;42.664;23.256;2023-01-01T13:04:10;95840.88;;;16.71;39.95
6528;BME280;64597;42.664;23.256;2023-01-01T13:06:59;95836.31;;;16.55;40.03
6528;BME280;64597;42.664;23.256;2023-01-01T13:09:33;95837.94;;;16.56;40.57
6528;BME280;64597;42.664;23.256;2023-01-01T13:12:04;95833.09;;;16.53;40.90
6528;BME280;64597;42.664;23.256;2023-01-01T13:14:38;95832.84;;;16.55;40.99
6528;BME280;64597;42.664;23.256;2023-01-01T13:19:46;95833.44;;;16.73;44.84
6528;BME280;64597;42.664;23.256;2023-01-01T13:25:17;95835.13;;;16.63;41.02
6528;BME280;64597;42.664;23.256;2023-01-01T13:35:43;95835.91;;;16.18;41.47
6528;BME280;64597;42.664;23.256;2023-01-01T13:41:43;95825.66;;;15.99;50.51
6528;BME280;64597;42.664;23.256;2023-01-01T14:02:50;95846.91;;;15.71;43.46
6528;BME280;64597;42.664;23.256;2023-01-01T14:05:40;95850.41;;;15.59;43.80
6528;BME280;64597;42.664;23.256;2023-01-01T14:08:26;95848.44;;;15.55;43.64
6528;BME280;64597;42.664;23.256;2023-01-01T14:10:52;95839.06;;;15.41;43.83
6528;BME280;64597;42.664;23.256;2023-01-01T14:13:18;95848.88;;;15.40;43.90
6528;BME280;64597;42.664;23.256;2023-01-01T14:16:00;95848.53;;;15.02;45.07
6528;BME280;64597;42.664;23.256;2023-01-01T14:18:37;95850.53;;;14.54;46.86
6528;BME280;64597;42.664;23.256;2023-01-01T14:21:09;95848.09;;;14.23;47.39
6528;BME280;64597;42.664;23.256;2023-01-01T14:23:39;95849.00;;;13.98;48.36
6528;BME280;64597;42.664;23.256;2023-01-01T14:26:11;95859.88;;;13.79;48.39
6528;BME280;64597;42.664;23.256;2023-01-01T14:28:38;95854.28;;;13.69;48.93
6528;BME280;64597;42.664;23.256;2023-01-01T14:31:28;95854.50;;;13.49;49.65
6528;BME280;64597;42.664;23.256;2023-01-01T14:33:54;95856.41;;;13.24;49.84
6528;BME280;64597;42.664;23.256;2023-01-01T14:36:24;95853.97;;;12.98;50.81
6528;BME280;64597;42.664;23.256;2023-01-01T14:38:52;95858.44;;;12.73;51.15
6528;BME280;64597;42.664;23.256;2023-01-01T14:43:49;95860.25;;;12.48;52.05
6528;BME280;64597;42.664;23.256;2023-01-01T14:46:19;95860.00;;;12.24;52.30
6528;BME280;64597;42.664;23.256;2023-01-01T14:48:47;95868.28;;;12.34;52.57
6528;BME280;64597;42.664;23.256;2023-01-01T14:51:22;95865.31;;;12.24;52.54
6528;BME280;64597;42.664;23.256;2023-01-01T14:53:51;95871.00;;;12.21;52.81
6528;BME280;64597;42.664;23.256;2023-01-01T14:56:21;95864.06;;;12.20;53.09
6528;BME280;64597;42.664;23.256;2023-01-01T14:58:47;95870.88;;;12.03;52.95
6528;BME280;64597;42.664;23.256;2023-01-01T15:01:22;95884.63;;;11.74;54.03
6528;BME280;64597;42.664;23.256;2023-01-01T15:04:00;95881.41;;;11.59;54.42